createdAt,value
2017-09-30T00:02:27.134Z,42.27
2017-09-30T00:04:55.541Z,45.53
2017-09-30T00:07:24.746Z,43.03
2017-09-30T00:09:53.928Z,41.10
2017-09-30T00:12:23.104Z,42.63
2017-09-30T00:14:51.548Z,44.53
2017-09-30T00:17:20.194Z,43.57
2017-09-30T00:19:49.378Z,44.33
2017-09-30T00:22:17.813Z,46.00
2017-09-30T00:24:46.240Z,44.87
2017-09-30T00:27:15.433Z,47.10
2017-09-30T00:29:43.857Z,40.97
2017-09-30T00:32:12.265Z,45.00
2017-09-30T00:34:40.679Z,40.40
2017-09-30T00:37:09.879Z,38.10
2017-09-30T00:39:39.049Z,46.50
2017-09-30T00:42:07.112Z,46.70
2017-09-30T00:44:35.533Z,38.63
2017-09-30T00:47:03.951Z,38.47
2017-09-30T00:49:32.371Z,41.23
2017-09-30T00:52:01.565Z,42.80
2017-09-30T00:54:29.979Z,39.77
2017-09-30T00:56:57.694Z,45.50
2017-09-30T00:59:25.426Z,38.23
2017-09-30T01:01:53.490Z,43.60
2017-09-30T01:04:21.558Z,47.83
2017-09-30T01:06:49.997Z,38.13
2017-09-30T01:09:19.173Z,44.87
2017-09-30T01:11:47.592Z,41.87
2017-09-30T01:14:16.324Z,45.43
2017-09-30T01:16:44.745Z,42.57
2017-09-30T01:19:13.235Z,38.43
2017-09-30T01:21:41.323Z,46.63
2017-09-30T01:24:09.057Z,46.90
2017-09-30T01:26:38.234Z,38.63
2017-09-30T01:29:06.323Z,45.53
2017-09-30T01:31:34.813Z,44.53
2017-09-30T01:34:02.527Z,39.20
2017-09-30T01:36:30.266Z,43.87
2017-09-30T01:38:58.338Z,37.33
2017-09-30T01:41:26.050Z,40.00
2017-09-30T01:43:55.488Z,43.47
2017-09-30T01:46:23.214Z,41.43
2017-09-30T01:48:51.698Z,38.80
2017-09-30T01:51:20.210Z,47.33
2017-09-30T01:53:48.623Z,36.13
2017-09-30T01:56:17.046Z,43.13
2017-09-30T01:58:45.473Z,38.03
2017-09-30T02:01:15.029Z,43.40
2017-09-30T02:03:43.518Z,45.07
2017-09-30T02:06:11.957Z,47.00
2017-09-30T02:08:40.373Z,43.30
2017-09-30T02:11:08.785Z,40.63
2017-09-30T02:13:37.220Z,44.10
2017-09-30T02:16:06.053Z,43.50
2017-09-30T02:18:34.471Z,42.70
2017-09-30T02:21:03.665Z,41.90
2017-09-30T02:23:32.105Z,40.93
2017-09-30T02:26:00.511Z,39.93
2017-09-30T02:28:29.148Z,45.40
2017-09-30T02:30:57.561Z,38.53
2017-09-30T02:33:25.980Z,41.50
2017-09-30T02:35:55.184Z,44.07
2017-09-30T02:38:23.593Z,42.20
2017-09-30T02:40:52.003Z,42.43
2017-09-30T02:43:20.446Z,37.90
2017-09-30T02:45:48.855Z,47.67
2017-09-30T02:48:17.284Z,37.37
2017-09-30T02:50:45.758Z,39.50
2017-09-30T02:53:14.174Z,48.03
2017-09-30T02:55:42.582Z,50.57
2017-09-30T02:58:11.013Z,52.87
2017-09-30T03:00:39.434Z,40.40
2017-09-30T03:03:07.845Z,48.50
2017-09-30T03:05:36.089Z,43.57
2017-09-30T03:08:04.510Z,43.90
2017-09-30T03:10:32.918Z,45.83
2017-09-30T03:13:01.349Z,38.67
2017-09-30T03:15:30.531Z,43.47
2017-09-30T03:17:58.941Z,41.80
2017-09-30T03:20:27.375Z,49.60
2017-09-30T03:22:55.783Z,39.10
2017-09-30T03:25:24.963Z,45.27
2017-09-30T03:27:53.378Z,47.40
2017-09-30T03:30:21.795Z,44.90
2017-09-30T03:32:50.202Z,41.23
2017-09-30T03:35:19.406Z,45.43
2017-09-30T03:37:48.590Z,42.80
2017-09-30T03:40:17.130Z,41.37
2017-09-30T03:42:45.570Z,42.20
2017-09-30T03:45:14.767Z,39.83
2017-09-30T03:47:43.934Z,42.03
2017-09-30T03:50:12.362Z,38.60
2017-09-30T03:52:41.514Z,39.07
2017-09-30T03:55:10.686Z,41.00
2017-09-30T03:57:39.114Z,38.37
2017-09-30T04:00:08.315Z,45.07
2017-09-30T04:02:36.974Z,40.50
2017-09-30T04:05:06.177Z,43.53
2017-09-30T04:07:35.362Z,43.17
2017-09-30T04:10:03.776Z,40.20
2017-09-30T04:12:32.234Z,46.10
2017-09-30T04:15:01.418Z,40.83
2017-09-30T04:17:29.829Z,43.70
2017-09-30T04:20:04.351Z,48.93
2017-09-30T04:22:32.771Z,46.00
2017-09-30T04:25:01.186Z,47.47
2017-09-30T04:27:30.394Z,45.60
2017-09-30T04:29:59.574Z,45.50
2017-09-30T04:32:28.762Z,50.50
2017-09-30T04:34:57.200Z,42.23
2017-09-30T04:37:25.615Z,41.53
2017-09-30T04:39:54.026Z,41.50
2017-09-30T04:42:22.458Z,47.07
2017-09-30T04:44:50.966Z,41.63
2017-09-30T04:47:20.237Z,37.33
2017-09-30T04:49:48.762Z,42.47
2017-09-30T04:52:17.951Z,37.27
2017-09-30T04:54:46.407Z,34.40
2017-09-30T04:57:15.626Z,37.07
2017-09-30T04:59:44.800Z,36.00
2017-09-30T05:02:13.214Z,36.03
2017-09-30T05:04:41.644Z,32.10
2017-09-30T05:07:10.050Z,32.90
2017-09-30T05:09:39.238Z,40.07
2017-09-30T05:12:07.662Z,38.60
2017-09-30T05:14:36.070Z,39.07
2017-09-30T05:17:04.494Z,32.03
2017-09-30T05:19:33.690Z,30.77
2017-09-30T05:22:02.872Z,34.80
2017-09-30T05:24:32.057Z,38.10
2017-09-30T05:27:00.488Z,35.93
2017-09-30T05:29:28.917Z,40.17
2017-09-30T05:31:57.333Z,46.23
2017-09-30T05:34:25.783Z,32.13
2017-09-30T05:36:54.965Z,53.23
2017-09-30T05:39:23.380Z,29.67
2017-09-30T05:41:51.806Z,45.67
2017-09-30T05:44:20.301Z,32.93
2017-09-30T05:46:50.219Z,33.67
2017-09-30T05:49:18.645Z,33.43
2017-09-30T05:51:47.050Z,26.87
2017-09-30T05:54:15.459Z,27.20
2017-09-30T05:56:43.885Z,46.43
2017-09-30T05:59:12.306Z,21.90
2017-09-30T06:01:40.375Z,24.60
2017-09-30T06:04:08.798Z,23.20
2017-09-30T06:06:37.206Z,25.83
2017-09-30T06:09:05.670Z,24.53
2017-09-30T06:11:34.122Z,27.40
2017-09-30T06:14:03.307Z,24.33
2017-09-30T06:16:32.482Z,26.87
2017-09-30T06:19:00.926Z,32.47
2017-09-30T06:21:29.350Z,34.33
2017-09-30T06:23:57.881Z,28.07
2017-09-30T06:26:26.310Z,34.40
2017-09-30T06:28:54.723Z,32.47
2017-09-30T06:31:23.151Z,32.53
2017-09-30T06:33:51.587Z,28.53
2017-09-30T06:36:20.001Z,26.97
2017-09-30T06:38:48.404Z,24.70
2017-09-30T06:41:17.027Z,25.33
2017-09-30T06:43:45.434Z,29.40
2017-09-30T06:46:13.851Z,30.53
2017-09-30T06:48:43.039Z,33.30
2017-09-30T06:51:11.454Z,26.30
2017-09-30T06:53:39.866Z,23.97
2017-09-30T06:56:08.287Z,25.80
2017-09-30T06:58:37.462Z,21.73
2017-09-30T07:01:05.883Z,24.10
2017-09-30T07:03:34.339Z,22.23
2017-09-30T07:06:03.526Z,25.27
2017-09-30T07:08:31.949Z,23.77
2017-09-30T07:11:00.375Z,21.10
2017-09-30T07:13:30.306Z,21.67
2017-09-30T07:15:59.505Z,22.77
2017-09-30T07:18:28.705Z,22.80
2017-09-30T07:20:57.879Z,18.47
2017-09-30T07:23:26.291Z,19.57
2017-09-30T07:25:55.491Z,20.43
2017-09-30T07:28:23.958Z,23.43
2017-09-30T07:30:53.142Z,18.83
2017-09-30T07:33:21.578Z,20.37
2017-09-30T07:35:49.990Z,20.87
2017-09-30T07:38:18.403Z,22.23
2017-09-30T07:40:46.830Z,20.57
2017-09-30T07:43:15.244Z,22.37
2017-09-30T07:45:44.418Z,17.47
2017-09-30T07:48:12.850Z,22.67
2017-09-30T07:50:41.265Z,20.13
2017-09-30T07:53:09.689Z,18.67
2017-09-30T07:55:39.318Z,17.90
2017-09-30T07:58:08.002Z,28.90
2017-09-30T08:00:36.639Z,26.43
2017-09-30T08:03:06.194Z,21.13
2017-09-30T08:05:34.642Z,17.80
2017-09-30T08:08:03.826Z,18.20
2017-09-30T08:10:33.038Z,19.10
2017-09-30T08:13:02.224Z,20.60
2017-09-30T08:15:32.150Z,23.40
2017-09-30T08:18:01.387Z,18.83
2017-09-30T08:20:29.802Z,19.90
2017-09-30T08:22:58.217Z,20.37
2017-09-30T08:25:26.647Z,21.83
2017-09-30T08:27:55.067Z,15.83
2017-09-30T08:30:23.484Z,25.20
2017-09-30T08:32:51.913Z,25.37
2017-09-30T08:35:21.081Z,24.63
2017-09-30T08:37:50.271Z,19.10
2017-09-30T08:40:18.937Z,24.17
2017-09-30T08:42:47.361Z,24.73
2017-09-30T08:45:16.541Z,24.53
2017-09-30T08:47:46.500Z,23.87
2017-09-30T08:50:15.139Z,20.80
2017-09-30T08:52:44.387Z,23.90
2017-09-30T08:55:12.463Z,18.90
2017-09-30T08:57:40.881Z,20.50
2017-09-30T09:00:09.290Z,19.60
2017-09-30T09:02:38.491Z,29.50
2017-09-30T09:05:07.671Z,25.73
2017-09-30T09:07:36.847Z,27.23
2017-09-30T09:10:05.275Z,19.70
2017-09-30T09:12:33.680Z,23.67
2017-09-30T09:15:02.082Z,18.97
2017-09-30T09:17:30.510Z,21.80
2017-09-30T09:19:58.918Z,18.53
2017-09-30T09:22:27.446Z,22.90
2017-09-30T09:24:56.642Z,20.60
2017-09-30T09:27:25.826Z,25.00
2017-09-30T09:29:54.242Z,18.30
2017-09-30T09:32:22.698Z,20.80
2017-09-30T09:34:51.874Z,29.53
2017-09-30T09:37:20.278Z,22.30
2017-09-30T09:39:49.494Z,19.93
2017-09-30T09:42:17.905Z,23.10
2017-09-30T09:44:46.338Z,23.30
2017-09-30T09:47:14.772Z,22.67
2017-09-30T09:49:43.185Z,25.50
2017-09-30T09:52:12.363Z,22.27
2017-09-30T09:54:40.790Z,26.77
2017-09-30T09:57:09.209Z,37.27
2017-09-30T09:59:37.626Z,24.77
2017-09-30T10:02:06.128Z,31.37
2017-09-30T10:04:34.559Z,32.33
2017-09-30T10:07:02.776Z,29.93
2017-09-30T10:09:31.033Z,21.80
2017-09-30T10:12:00.209Z,24.07
2017-09-30T10:14:28.647Z,28.93
2017-09-30T10:16:57.070Z,20.37
2017-09-30T10:19:26.254Z,24.67
2017-09-30T10:21:56.191Z,32.83
2017-09-30T10:24:24.891Z,20.70
2017-09-30T10:26:53.307Z,21.23
2017-09-30T10:29:21.863Z,26.67
2017-09-30T10:31:50.294Z,24.43
2017-09-30T10:34:18.715Z,20.90
2017-09-30T10:36:47.117Z,32.27
2017-09-30T10:39:15.543Z,20.57
2017-09-30T10:41:44.725Z,21.07
2017-09-30T10:44:13.143Z,22.53
2017-09-30T10:46:41.595Z,21.70
2017-09-30T10:49:10.767Z,25.97
2017-09-30T10:51:39.178Z,28.57
2017-09-30T10:54:08.370Z,22.87
2017-09-30T10:56:37.544Z,28.67
2017-09-30T10:59:06.722Z,21.77
2017-09-30T11:01:35.278Z,21.17
2017-09-30T11:04:03.685Z,19.60
2017-09-30T11:06:32.102Z,20.93
2017-09-30T11:09:01.321Z,18.27
2017-09-30T11:11:29.729Z,15.47
2017-09-30T11:13:58.140Z,17.00
2017-09-30T11:16:27.338Z,20.17
2017-09-30T11:18:57.250Z,17.57
2017-09-30T11:21:27.182Z,23.03
2017-09-30T11:23:56.500Z,18.17
2017-09-30T11:26:24.982Z,21.70
2017-09-30T11:28:53.394Z,20.87
2017-09-30T11:31:21.838Z,20.20
2017-09-30T11:33:50.254Z,14.67
2017-09-30T11:36:18.674Z,18.93
2017-09-30T11:38:47.867Z,19.47
2017-09-30T11:41:17.049Z,20.00
2017-09-30T11:43:45.472Z,19.00
2017-09-30T11:46:13.955Z,16.20
2017-09-30T11:48:43.041Z,18.10
2017-09-30T11:51:11.459Z,17.13
2017-09-30T11:53:39.897Z,16.53
2017-09-30T11:56:08.315Z,19.83
2017-09-30T11:58:36.730Z,17.53
2017-09-30T12:01:05.975Z,20.50
2017-09-30T12:03:34.393Z,18.13
2017-09-30T12:06:02.799Z,19.70
2017-09-30T12:08:31.531Z,16.77
2017-09-30T12:10:59.955Z,19.40
2017-09-30T12:13:29.125Z,26.23
2017-09-30T12:15:57.547Z,18.90
2017-09-30T12:18:25.966Z,19.50
2017-09-30T12:20:54.416Z,17.80
2017-09-30T12:23:22.836Z,18.93
2017-09-30T12:25:51.254Z,19.30
2017-09-30T12:28:19.666Z,17.63
2017-09-30T12:30:48.104Z,18.93
2017-09-30T12:33:17.282Z,24.47
2017-09-30T12:35:45.700Z,22.77
2017-09-30T12:38:14.122Z,17.37
2017-09-30T12:40:42.534Z,22.27
2017-09-30T12:43:11.715Z,29.03
2017-09-30T12:45:40.149Z,23.70
2017-09-30T12:48:08.561Z,24.00
2017-09-30T12:50:36.975Z,29.67
2017-09-30T12:53:05.701Z,18.83
2017-09-30T12:55:34.111Z,20.67
2017-09-30T12:58:02.533Z,31.20
2017-09-30T13:00:30.968Z,21.87
2017-09-30T13:03:01.371Z,21.87
2017-09-30T13:05:30.407Z,24.83
2017-09-30T13:07:59.631Z,25.73
2017-09-30T13:10:28.029Z,19.97
2017-09-30T13:12:56.447Z,28.17
2017-09-30T13:15:25.647Z,22.17
2017-09-30T13:17:54.826Z,22.20
2017-09-30T13:20:23.245Z,27.40
2017-09-30T13:22:51.677Z,28.27
2017-09-30T13:25:20.862Z,22.80
2017-09-30T13:27:49.336Z,29.80
2017-09-30T13:30:17.996Z,25.47
2017-09-30T13:32:46.422Z,22.40
2017-09-30T13:35:14.836Z,21.50
2017-09-30T13:37:44.062Z,23.10
2017-09-30T13:40:12.475Z,26.60
2017-09-30T13:42:40.894Z,21.90
2017-09-30T13:45:09.334Z,31.90
2017-09-30T13:47:38.543Z,22.20
2017-09-30T13:50:07.042Z,21.87
2017-09-30T13:52:36.228Z,26.50
2017-09-30T13:55:05.410Z,22.60
2017-09-30T13:57:35.370Z,18.93
2017-09-30T14:00:03.808Z,25.10
2017-09-30T14:02:31.918Z,26.67
2017-09-30T14:05:00.349Z,21.80
2017-09-30T14:07:28.774Z,22.10
2017-09-30T14:09:57.194Z,19.63
2017-09-30T14:12:25.617Z,27.13
2017-09-30T14:14:54.304Z,24.80
2017-09-30T14:17:22.974Z,23.00
2017-09-30T14:19:52.146Z,22.17
2017-09-30T14:22:20.581Z,21.53
2017-09-30T14:24:49.003Z,19.67
2017-09-30T14:27:17.429Z,18.83
2017-09-30T14:29:45.851Z,21.53
2017-09-30T14:32:14.267Z,21.57
2017-09-30T14:34:43.469Z,23.57
2017-09-30T14:37:12.690Z,21.63
2017-09-30T14:39:41.103Z,27.03
2017-09-30T14:42:09.515Z,26.43
2017-09-30T14:44:38.701Z,31.83
2017-09-30T14:47:07.891Z,19.30
2017-09-30T14:49:36.337Z,23.23
2017-09-30T14:52:04.781Z,22.73
2017-09-30T14:54:33.186Z,23.83
2017-09-30T14:57:01.602Z,26.47
2017-09-30T14:59:30.797Z,20.13
2017-09-30T15:01:59.215Z,20.67
2017-09-30T15:04:27.631Z,25.87
2017-09-30T15:06:56.063Z,29.73
2017-09-30T15:09:24.487Z,22.33
2017-09-30T15:11:52.903Z,25.03
2017-09-30T15:14:22.330Z,23.53
2017-09-30T15:16:50.747Z,19.43
2017-09-30T15:19:19.187Z,21.60
2017-09-30T15:21:47.643Z,23.97
2017-09-30T15:24:17.495Z,23.40
2017-09-30T15:26:45.906Z,28.50
2017-09-30T15:29:14.337Z,21.83
2017-09-30T15:31:42.828Z,21.43
2017-09-30T15:34:11.246Z,20.00
2017-09-30T15:36:39.670Z,23.27
2017-09-30T15:39:08.082Z,23.27
2017-09-30T15:41:36.528Z,21.87
2017-09-30T15:44:04.962Z,34.53
2017-09-30T15:46:33.369Z,31.43
2017-09-30T15:49:02.551Z,31.20
2017-09-30T15:51:31.252Z,33.23
2017-09-30T15:54:00.429Z,23.20
2017-09-30T15:56:29.598Z,24.10
2017-09-30T15:58:58.032Z,25.60
2017-09-30T16:01:27.206Z,22.00
2017-09-30T16:03:55.632Z,25.53
2017-09-30T16:06:23.893Z,31.07
2017-09-30T16:08:52.381Z,22.93
2017-09-30T16:11:20.880Z,24.70
2017-09-30T16:13:49.619Z,22.87
2017-09-30T16:16:18.995Z,31.70
2017-09-30T16:18:47.641Z,24.17
2017-09-30T16:21:16.258Z,21.97
2017-09-30T16:23:44.681Z,24.50
2017-09-30T16:26:13.112Z,27.40
2017-09-30T16:28:41.536Z,29.60
2017-09-30T16:31:09.979Z,21.43
2017-09-30T16:33:38.391Z,21.63
2017-09-30T16:36:06.825Z,25.00
2017-09-30T16:38:35.257Z,26.10
2017-09-30T16:41:03.678Z,27.23
2017-09-30T16:43:32.169Z,22.97
2017-09-30T16:46:00.938Z,23.37
2017-09-30T16:48:29.350Z,27.73
2017-09-30T16:50:58.550Z,20.60
2017-09-30T16:53:27.731Z,22.93
2017-09-30T16:55:56.146Z,25.50
2017-09-30T16:58:24.574Z,24.60
2017-09-30T17:00:52.990Z,22.00
2017-09-30T17:03:22.166Z,25.50
2017-09-30T17:05:50.593Z,23.87
2017-09-30T17:08:19.002Z,26.10
2017-09-30T17:10:47.413Z,25.17
2017-09-30T17:13:16.602Z,31.67
2017-09-30T17:15:45.012Z,24.80
2017-09-30T17:18:13.425Z,22.97
2017-09-30T17:20:41.857Z,27.80
2017-09-30T17:23:11.034Z,29.03
2017-09-30T17:25:39.439Z,22.30
2017-09-30T17:28:08.196Z,29.93
2017-09-30T17:30:36.993Z,24.40
2017-09-30T17:33:06.227Z,28.40
2017-09-30T17:35:34.669Z,32.63
2017-09-30T17:38:03.841Z,29.27
2017-09-30T17:40:32.265Z,27.87
2017-09-30T17:43:00.684Z,23.67
2017-09-30T17:45:28.918Z,26.43
2017-09-30T17:47:57.334Z,30.10
2017-09-30T17:50:25.767Z,27.30
2017-09-30T17:52:54.948Z,38.00
2017-09-30T17:55:24.186Z,30.43
2017-09-30T17:57:52.614Z,26.70
2017-09-30T18:00:21.888Z,31.97
2017-09-30T18:02:50.298Z,23.90
2017-09-30T18:05:19.518Z,26.00
2017-09-30T18:07:47.930Z,30.47
2017-09-30T18:10:16.357Z,29.07
2017-09-30T18:12:45.550Z,31.80
2017-09-30T18:15:13.954Z,32.43
2017-09-30T18:17:42.366Z,31.57
2017-09-30T18:20:10.806Z,29.40
2017-09-30T18:22:39.222Z,39.27
2017-09-30T18:25:07.639Z,31.13
2017-09-30T18:27:36.073Z,27.77
2017-09-30T18:30:04.500Z,29.50
2017-09-30T18:32:33.673Z,32.67
2017-09-30T18:35:02.292Z,30.53
2017-09-30T18:37:31.475Z,31.70
2017-09-30T18:40:00.663Z,43.70
2017-09-30T18:42:28.757Z,33.80
2017-09-30T18:44:57.943Z,36.60
2017-09-30T18:47:27.121Z,44.27
2017-09-30T18:49:55.553Z,31.93
2017-09-30T18:52:23.975Z,27.33
2017-09-30T18:54:52.391Z,36.40
2017-09-30T18:57:21.587Z,29.33
2017-09-30T18:59:50.775Z,27.37
2017-09-30T19:02:19.952Z,29.67
2017-09-30T19:04:49.141Z,30.50
2017-09-30T19:07:17.603Z,40.17
2017-09-30T19:09:46.005Z,37.07
2017-09-30T19:12:14.435Z,34.30
2017-09-30T19:14:42.891Z,34.50
2017-09-30T19:17:11.320Z,30.83
2017-09-30T19:19:39.751Z,35.33
2017-09-30T19:22:08.165Z,27.60
2017-09-30T19:24:36.571Z,35.00
2017-09-30T19:27:04.995Z,32.70
2017-09-30T19:29:34.292Z,38.47
2017-09-30T19:32:02.704Z,35.70
2017-09-30T19:34:31.137Z,39.40
2017-09-30T19:37:01.465Z,43.90
2017-09-30T19:39:29.874Z,46.00
2017-09-30T19:41:58.311Z,44.37
2017-09-30T19:44:27.301Z,50.93
2017-09-30T19:46:56.495Z,53.37
2017-09-30T19:49:25.690Z,50.07
2017-09-30T19:51:54.874Z,51.37
2017-09-30T19:54:23.288Z,48.53
2017-09-30T19:56:51.970Z,47.90
2017-09-30T19:59:20.378Z,47.50
2017-09-30T20:01:48.798Z,46.70
2017-09-30T20:04:19.158Z,42.73
2017-09-30T20:06:47.574Z,40.73
2017-09-30T20:09:16.032Z,42.47
2017-09-30T20:11:44.465Z,37.13
2017-09-30T20:14:13.646Z,29.90
2017-09-30T20:16:42.069Z,34.83
2017-09-30T20:19:10.510Z,30.53
2017-09-30T20:21:38.949Z,36.97
2017-09-30T20:24:07.369Z,32.93
2017-09-30T20:26:35.801Z,30.87
2017-09-30T20:29:04.221Z,33.60
2017-09-30T20:31:32.870Z,33.57
2017-09-30T20:34:01.306Z,28.00
2017-09-30T20:36:31.087Z,37.37
2017-09-30T20:38:59.506Z,38.30
2017-09-30T20:41:27.945Z,34.87
2017-09-30T20:43:56.357Z,41.70
2017-09-30T20:46:24.779Z,36.30
2017-09-30T20:48:53.197Z,32.93
2017-09-30T20:51:21.605Z,37.30
2017-09-30T20:53:50.033Z,43.67
2017-09-30T20:56:18.464Z,40.93
2017-09-30T20:58:47.156Z,31.30
2017-09-30T21:01:15.571Z,34.27
2017-09-30T21:03:43.998Z,40.33
2017-09-30T21:06:12.424Z,35.90
2017-09-30T21:08:40.846Z,32.90
2017-09-30T21:11:10.042Z,38.70
2017-09-30T21:13:39.230Z,33.17
2017-09-30T21:16:08.403Z,31.43
2017-09-30T21:18:36.834Z,34.07
2017-09-30T21:21:05.246Z,29.50
2017-09-30T21:23:33.668Z,30.13
2017-09-30T21:26:02.874Z,20.90
2017-09-30T21:28:31.290Z,13.53
2017-09-30T21:30:59.886Z,12.37
2017-09-30T21:33:28.314Z,13.00
2017-09-30T21:35:57.566Z,10.90
2017-09-30T21:38:25.993Z,8.70
2017-09-30T21:40:54.426Z,10.27
2017-09-30T21:43:22.850Z,12.60
2017-09-30T21:45:51.065Z,9.00
2017-09-30T21:48:19.508Z,7.70
2017-09-30T21:50:47.963Z,8.10
2017-09-30T21:53:16.211Z,9.00
2017-09-30T21:55:44.645Z,9.47
2017-09-30T21:58:12.899Z,12.10
2017-09-30T22:00:41.315Z,8.73
2017-09-30T22:03:09.767Z,11.07
2017-09-30T22:05:38.188Z,9.53
2017-09-30T22:08:06.590Z,10.70
2017-09-30T22:10:35.014Z,14.80
2017-09-30T22:13:03.418Z,11.30
2017-09-30T22:15:31.668Z,13.43
2017-09-30T22:17:59.898Z,9.67
2017-09-30T22:20:28.120Z,13.30
2017-09-30T22:22:56.518Z,12.80
2017-09-30T22:25:24.749Z,11.00
2017-09-30T22:27:53.928Z,10.97
2017-09-30T22:30:22.343Z,13.10
2017-09-30T22:32:50.850Z,10.00
2017-09-30T22:35:19.263Z,12.70
2017-09-30T22:37:47.673Z,13.43
2017-09-30T22:40:15.961Z,10.87
2017-09-30T22:42:44.379Z,16.30
2017-09-30T22:45:12.788Z,12.90
2017-09-30T22:47:41.997Z,12.23
2017-09-30T22:50:10.419Z,11.63
2017-09-30T22:52:38.836Z,15.53
2017-09-30T22:55:08.043Z,13.13
2017-09-30T22:57:36.450Z,17.47
2017-09-30T23:00:04.872Z,17.90
2017-09-30T23:02:33.302Z,14.13
2017-09-30T23:05:01.714Z,13.00
2017-09-30T23:07:30.130Z,17.43
2017-09-30T23:09:59.342Z,13.23
2017-09-30T23:12:27.754Z,14.30
2017-09-30T23:14:56.170Z,18.23
2017-09-30T23:17:24.606Z,14.43
2017-09-30T23:19:53.023Z,16.50
2017-09-30T23:22:21.438Z,13.60
2017-09-30T23:24:49.874Z,17.17
2017-09-30T23:27:18.302Z,16.50
2017-09-30T23:29:46.713Z,15.30
2017-09-30T23:32:15.789Z,11.63
2017-09-30T23:34:44.197Z,13.20
2017-09-30T23:37:12.608Z,12.53
2017-09-30T23:39:41.043Z,11.33
2017-09-30T23:42:09.457Z,11.77
2017-09-30T23:44:38.623Z,11.53
2017-09-30T23:47:07.041Z,9.63
2017-09-30T23:49:36.212Z,10.13
2017-09-30T23:52:04.617Z,10.50
2017-09-30T23:54:33.825Z,9.37
2017-09-30T23:57:02.234Z,9.20
2017-09-30T23:59:30.646Z,8.97
